Time;durP1;ratioP1;P1;durP2;ratioP2;P2;SDS_P1;SDS_P2;PMS_P1;PMS_P2;Temp;Humidity;BMP_temperature;BMP_pressure;BME280_temperature;BME280_humidity;BME280_pressure;Samples;Min_cycle;Max_cycle;Signal;HPM_P1;HPM_P2
2022/07/24 00:02:36;;;;;;;10.35;5.85;;;;;;;18.92;50.18;100289.53;10333965;28;20373;-79
2022/07/24 00:07:38;;;;;;;8.07;5.63;;;;;;;18.90;50.42;100291.47;10357489;28;20053;-79
2022/07/24 00:12:40;;;;;;;8.32;5.88;;;;;;;18.86;50.50;100298.88;10339786;28;20074;-80
2022/07/24 00:17:42;;;;;;;10.18;5.95;;;;;;;18.74;50.56;100292.00;10341634;28;20053;-79
2022/07/24 00:22:44;;;;;;;13.50;6.07;;;;;;;18.57;51.30;100297.91;10339373;28;20046;-79
2022/07/24 00:27:46;;;;;;;7.80;6.13;;;;;;;18.55;51.05;100299.88;10341018;28;20414;-79
2022/07/24 00:32:48;;;;;;;9.57;5.63;;;;;;;18.54;51.49;100301.66;10341943;28;20049;-79
2022/07/24 00:37:50;;;;;;;9.45;6.30;;;;;;;18.55;51.30;100299.88;10339781;28;20057;-79
2022/07/24 00:42:52;;;;;;;9.38;6.35;;;;;;;18.35;52.00;100295.47;10340942;28;20116;-79
2022/07/24 00:47:55;;;;;;;10.77;6.13;;;;;;;18.26;52.07;100298.91;10340086;28;20054;-79
2022/07/24 00:52:59;;;;;;;10.02;6.00;;;;;;;18.14;52.16;100298.09;10339363;28;20080;-79
2022/07/24 00:58:01;;;;;;;10.38;6.32;;;;;;;18.11;52.39;100290.44;10341420;28;20053;-79
2022/07/24 01:03:03;;;;;;;8.65;6.20;;;;;;;18.08;52.51;100290.69;10354876;28;20100;-79
2022/07/24 01:08:05;;;;;;;8.45;6.60;;;;;;;17.98;52.78;100292.44;10354781;28;20061;-80
2022/07/24 01:13:08;;;;;;;8.02;6.18;;;;;;;17.90;52.96;100286.94;10362452;28;20081;-80
2022/07/24 01:18:11;;;;;;;8.25;6.60;;;;;;;17.82;53.19;100290.25;10360494;28;20073;-80
2022/07/24 01:23:13;;;;;;;13.15;7.03;;;;;;;17.43;53.89;100285.63;10335830;28;20061;-80
2022/07/24 01:28:15;;;;;;;11.07;6.65;;;;;;;17.45;54.29;100281.06;10339606;28;20104;-80
2022/07/24 01:33:18;;;;;;;8.77;6.85;;;;;;;17.51;54.33;100282.34;10336119;28;20064;-80
2022/07/24 01:38:20;;;;;;;11.25;6.55;;;;;;;17.49;54.02;100282.47;10338834;28;20112;-80
2022/07/24 01:43:22;;;;;;;12.68;6.93;;;;;;;17.53;54.00;100285.69;10336323;28;20065;-80
2022/07/24 01:48:24;;;;;;;9.57;6.35;;;;;;;17.46;53.86;100285.38;10335261;28;20062;-80
2022/07/24 01:53:26;;;;;;;9.27;6.40;;;;;;;17.43;54.32;100272.41;10335923;28;20049;-80
2022/07/24 01:58:28;;;;;;;8.25;6.70;;;;;;;17.51;54.25;100283.19;10335447;28;20120;-80
2022/07/24 02:03:30;;;;;;;10.00;6.85;;;;;;;17.40;54.50;100288.53;10313135;28;1185860;-80
2022/07/24 02:08:32;;;;;;;8.27;6.55;;;;;;;17.29;54.94;100285.88;10356251;28;20057;-80
2022/07/24 02:13:33;;;;;;;7.72;6.85;;;;;;;17.25;55.07;100292.41;10344112;28;20050;-80
2022/07/24 02:18:35;;;;;;;9.65;7.53;;;;;;;17.19;55.14;100290.25;10351457;28;20058;-80
2022/07/24 02:23:37;;;;;;;8.20;7.40;;;;;;;17.10;55.37;100293.63;10339686;28;20058;-80
2022/07/24 02:28:39;;;;;;;9.95;6.82;;;;;;;17.09;55.25;100291.97;10357166;28;20496;-80
2022/07/24 02:33:41;;;;;;;8.82;6.57;;;;;;;17.06;55.37;100296.66;10352221;28;20441;-80
2022/07/24 02:38:43;;;;;;;8.68;7.00;;;;;;;17.08;55.25;100292.09;10341117;28;20070;-80
2022/07/24 02:43:45;;;;;;;6.93;6.22;;;;;;;17.07;55.13;100290.41;10343153;28;20488;-80
2022/07/24 02:48:47;;;;;;;8.50;7.00;;;;;;;17.08;55.44;100292.09;10343598;28;20066;-80
2022/07/24 02:53:49;;;;;;;7.90;7.03;;;;;;;17.03;55.33;100290.66;10333506;28;20073;-79
2022/07/24 02:58:50;;;;;;;10.07;6.88;;;;;;;17.01;55.30;100294.38;10332803;28;20495;-80
2022/07/24 03:03:52;;;;;;;11.52;7.35;;;;;;;16.95;55.51;100300.16;10331058;28;20129;-80
2022/07/24 03:08:54;;;;;;;8.05;6.90;;;;;;;16.86;55.78;100303.53;10329306;28;20292;-79
2022/07/24 03:13:56;;;;;;;9.77;7.03;;;;;;;16.79;55.97;100300.53;10336360;28;20113;-80
2022/07/24 03:18:58;;;;;;;8.15;6.75;;;;;;;16.66;56.22;100296.34;10348957;28;20046;-79
2022/07/24 03:23:59;;;;;;;9.38;7.13;;;;;;;16.70;56.39;100300.44;10346084;28;20049;-80
2022/07/24 03:29:01;;;;;;;8.82;6.80;;;;;;;16.65;56.42;100297.31;10337387;28;20154;-79
2022/07/24 03:34:04;;;;;;;9.80;7.30;;;;;;;16.59;56.73;100300.44;10350311;28;20054;-79
2022/07/24 03:39:06;;;;;;;11.10;7.15;;;;;;;16.63;56.79;100304.53;10351308;28;20049;-79
2022/07/24 03:44:09;;;;;;;7.45;6.50;;;;;;;16.70;56.61;100296.00;10349743;28;20061;-79
2022/07/24 03:49:11;;;;;;;9.75;7.10;;;;;;;16.82;56.29;100302.09;10336499;28;20068;-79
2022/07/24 03:54:14;;;;;;;8.77;6.32;;;;;;;16.84;56.24;100300.16;10336327;28;20061;-79
2022/07/24 03:59:16;;;;;;;8.65;7.75;;;;;;;16.95;56.10;100305.44;10329219;28;20111;-79
2022/07/24 04:04:18;;;;;;;10.95;7.00;;;;;;;16.98;55.92;100297.25;10335794;28;20085;-79
2022/07/24 04:09:20;;;;;;;7.95;6.60;;;;;;;17.04;55.47;100296.75;10325851;28;20054;-79
2022/07/24 04:14:32;;;;;;;8.05;6.60;;;;;;;17.04;55.74;100299.41;10322280;28;20078;-79
2022/07/24 04:19:35;;;;;;;8.63;7.40;;;;;;;17.13;55.28;100300.47;10338250;28;20081;-79
2022/07/24 04:24:36;;;;;;;11.48;6.97;;;;;;;17.05;55.53;100306.38;10326516;28;20050;-79
2022/07/24 04:29:38;;;;;;;8.20;6.68;;;;;;;17.33;55.19;100304.97;10317818;28;20058;-79
2022/07/24 04:34:40;;;;;;;10.88;6.78;;;;;;;17.89;53.89;100302.97;10319104;28;20052;-79
2022/07/24 04:39:42;;;;;;;8.90;7.18;;;;;;;18.97;51.56;100297.94;10318325;28;20053;-79
2022/07/24 04:44:44;;;;;;;11.38;6.72;;;;;;;20.30;48.87;100291.78;10344101;28;20054;-79
2022/07/24 04:49:46;;;;;;;7.43;6.13;;;;;;;21.32;46.35;100286.25;10339803;28;20526;-79
2022/07/24 04:54:48;;;;;;;7.07;6.32;;;;;;;20.99;46.74;100293.00;10326353;28;20550;-79
2022/07/24 04:59:50;;;;;;;6.93;6.15;;;;;;;21.77;45.15;100296.78;10334981;28;20254;-80
2022/07/24 05:04:52;;;;;;;9.20;5.88;;;;;;;21.19;45.75;100304.38;10321607;28;20042;-80
2022/07/24 05:09:54;;;;;;;6.82;5.57;;;;;;;20.44;47.41;100307.25;10330895;28;20424;-80
2022/07/24 05:14:56;;;;;;;8.65;6.10;;;;;;;19.94;48.30;100313.81;10342979;28;20050;-79
2022/07/24 05:19:58;;;;;;;7.68;5.85;;;;;;;19.85;48.73;100315.47;10349089;28;20069;-79
2022/07/24 05:25:00;;;;;;;7.00;5.60;;;;;;;21.60;45.82;100308.28;10326827;28;20397;-80
2022/07/24 05:30:04;;;;;;;8.50;5.45;;;;;;;23.24;42.27;100307.13;10319599;28;20101;-80
2022/07/24 05:35:06;;;;;;;8.60;5.50;;;;;;;23.61;40.96;100305.88;10321304;28;20481;-80
2022/07/24 05:40:21;;;;;;;6.55;5.55;;;;;;;23.18;41.12;100299.78;10325428;28;20058;-80
2022/07/24 05:45:22;;;;;;;6.28;5.15;;;;;;;22.60;42.60;100299.69;10350444;28;20100;-80
2022/07/24 05:50:24;;;;;;;8.27;5.50;;;;;;;22.06;43.61;100305.38;10356166;28;20062;-80
2022/07/24 05:55:27;;;;;;;6.72;6.03;;;;;;;21.73;44.39;100296.28;10331160;28;20824;-80
2022/07/24 06:00:29;;;;;;;8.57;5.82;;;;;;;21.76;44.59;100295.13;10334052;28;20107;-80
2022/07/24 06:05:31;;;;;;;7.68;5.78;;;;;;;21.94;44.15;100285.28;10342187;28;21014;-80
2022/07/24 06:10:33;;;;;;;8.40;5.68;;;;;;;21.86;44.15;100290.56;10346748;28;20061;-80
2022/07/24 06:15:34;;;;;;;8.18;5.82;;;;;;;21.78;44.95;100287.84;10353367;28;20058;-80
2022/07/24 06:20:41;;;;;;;9.45;6.60;;;;;;;21.38;45.16;100279.47;10335755;28;20629;-80
2022/07/24 06:25:43;;;;;;;7.63;5.80;;;;;;;21.13;45.86;100280.22;10353158;28;20050;-79
2022/07/24 06:30:44;;;;;;;11.32;6.15;;;;;;;21.71;44.99;100286.75;10337777;28;20064;-81
2022/07/24 06:35:46;;;;;;;7.40;5.75;;;;;;;21.85;44.45;100275.56;10348495;28;20492;-80
2022/07/24 06:40:48;;;;;;;10.23;5.20;;;;;;;21.58;44.24;100273.00;10327132;28;20706;-80
2022/07/24 06:45:50;;;;;;;6.85;5.20;;;;;;;21.90;44.26;100275.94;10330759;28;20042;-81
2022/07/24 06:50:52;;;;;;;7.68;5.25;;;;;;;21.81;43.93;100268.88;10330964;28;20053;-81
2022/07/24 06:55:55;;;;;;;7.45;5.07;;;;;;;21.77;43.62;100270.16;10329658;28;20065;-80
2022/07/24 07:00:56;;;;;;;9.80;5.07;;;;;;;21.77;44.01;100267.50;10332151;28;20058;-81
2022/07/24 07:05:58;;;;;;;8.18;4.88;;;;;;;21.72;44.13;100275.13;10326626;28;20050;-81
2022/07/24 07:11:00;;;;;;;7.95;5.57;;;;;;;22.07;43.40;100283.06;10347052;28;20057;-80
2022/07/24 07:16:02;;;;;;;10.55;5.57;;;;;;;21.82;43.65;100276.69;10333007;28;20904;-80
2022/07/24 07:21:04;;;;;;;7.13;5.25;;;;;;;22.12;43.14;100278.13;10335688;28;20542;-80
2022/07/24 07:26:08;;;;;;;7.65;5.00;;;;;;;22.34;42.44;100277.56;10333257;28;20049;-80
2022/07/24 07:37:35;;;;;;;10.77;4.55;;;;;;;23.30;41.47;100271.78;10333034;28;20061;-80
2022/07/24 07:42:37;;;;;;;6.88;4.50;;;;;;;25.00;38.27;100265.13;10336065;28;20054;-80
2022/07/24 07:47:39;;;;;;;9.60;4.95;;;;;;;26.41;35.96;100254.59;10330804;28;20061;-80
2022/07/24 07:52:41;;;;;;;7.13;4.10;;;;;;;26.90;34.52;100254.81;10332973;28;20057;-80
2022/07/24 07:57:43;;;;;;;10.25;4.10;;;;;;;28.19;32.96;100242.81;10330692;28;20135;-80
2022/07/24 08:03:05;;;;;;;6.38;3.80;;;;;;;28.76;31.60;100244.38;10330323;28;20208;-81
2022/07/24 08:08:07;;;;;;;5.80;3.45;;;;;;;29.44;30.84;100225.31;10348963;28;20085;-80
2022/07/24 08:13:11;;;;;;;6.82;3.70;;;;;;;29.90;29.38;100222.63;10349040;28;20530;-81
2022/07/24 08:18:12;;;;;;;7.45;3.58;;;;;;;29.90;29.31;100219.91;10333275;28;20112;-81
2022/07/24 08:23:14;;;;;;;5.18;3.35;;;;;;;30.23;28.61;100211.78;10333377;28;20104;-80
2022/07/24 08:28:17;;;;;;;7.03;3.63;;;;;;;30.38;28.11;100218.56;10336918;28;20046;-81
2022/07/24 08:33:18;;;;;;;6.07;3.40;;;;;;;30.66;27.73;100216.41;10353360;28;20101;-81
2022/07/24 08:38:57;;;;;;;5.65;3.33;;;;;;;30.15;27.53;100212.81;10335580;28;20061;-81
2022/07/24 08:44:01;;;;;;;6.25;3.20;;;;;;;30.27;28.64;100207.63;10337427;28;20167;-82
2022/07/24 08:49:09;;;;;;;6.00;3.60;;;;;;;30.20;28.03;100209.50;10338676;28;20053;-81
2022/07/24 08:54:11;;;;;;;6.63;3.35;;;;;;;30.20;29.01;100207.63;10337649;28;20129;-81
2022/07/24 08:59:18;;;;;;;9.70;3.80;;;;;;;30.66;27.74;100199.41;10334328;28;20062;-81
2022/07/24 09:04:40;;;;;;;5.00;3.30;;;;;;;30.73;27.35;100194.78;10339159;28;20049;-81
2022/07/24 09:09:43;;;;;;;5.82;3.25;;;;;;;30.40;27.84;100186.81;10340939;28;20105;-81
2022/07/24 09:14:47;;;;;;;7.28;3.65;;;;;;;30.83;26.83;100183.50;10354068;28;20440;-81
2022/07/24 09:19:53;;;;;;;4.60;3.28;;;;;;;30.93;26.45;100178.47;10338364;28;20108;-81
2022/07/24 09:25:18;;;;;;;9.00;3.22;;;;;;;31.30;25.67;100185.72;10349078;28;20096;-81
2022/07/24 09:30:43;;;;;;;7.78;3.20;;;;;;;30.63;25.86;100175.53;10354188;28;20401;-81
2022/07/24 09:35:48;;;;;;;5.00;3.28;;;;;;;31.04;25.47;100167.84;10332061;28;20076;-81
2022/07/24 09:40:59;;;;;;;5.30;3.20;;;;;;;30.78;25.63;100167.97;10354865;28;20050;-81
2022/07/24 09:46:09;;;;;;;7.05;3.60;;;;;;;31.12;24.23;100167.56;10334469;28;20069;-82
2022/07/24 09:51:16;;;;;;;5.63;3.13;;;;;;;31.46;24.21;100160.84;10349948;28;20050;-81
2022/07/24 09:56:20;;;;;;;8.50;3.08;;;;;;;31.67;24.33;100146.13;10330496;28;20057;-81
2022/07/24 10:01:26;;;;;;;4.78;3.35;;;;;;;31.21;24.05;100138.41;10330701;28;20199;-81
2022/07/24 10:06:30;;;;;;;6.40;3.88;;;;;;;31.35;24.67;100139.94;10335767;28;20049;-82
2022/07/24 10:11:34;;;;;;;4.57;3.30;;;;;;;31.45;24.52;100129.47;10334713;28;20078;-82
2022/07/24 10:16:43;;;;;;;4.72;3.35;;;;;;;31.59;23.91;100133.72;10330436;28;20062;-81
2022/07/24 10:22:11;;;;;;;5.17;3.10;;;;;;;31.01;24.99;100124.19;10346757;28;20145;-82
2022/07/24 10:27:34;;;;;;;5.55;3.30;;;;;;;31.11;25.11;100117.25;10328475;28;21076;-81
2022/07/24 10:32:38;;;;;;;6.80;3.50;;;;;;;31.39;24.92;100111.44;10326671;28;20113;-81
2022/07/24 10:38:01;;;;;;;5.95;3.45;;;;;;;31.68;24.32;100105.31;10349587;28;20050;-81
2022/07/24 10:43:08;;;;;;;5.55;3.20;;;;;;;31.61;24.55;100093.78;10347333;28;20054;-82
2022/07/24 10:48:27;;;;;;;5.30;3.40;;;;;;;31.26;25.09;100092.63;10331978;28;20108;-81
2022/07/24 10:53:38;;;;;;;4.60;3.08;;;;;;;31.15;24.94;100093.34;10345491;28;20054;-81
2022/07/24 10:58:55;;;;;;;5.82;3.30;;;;;;;31.08;25.03;100079.91;10332340;28;20491;-81
2022/07/24 11:03:58;;;;;;;4.55;3.25;;;;;;;31.12;25.44;100080.28;10344051;28;20108;-81
2022/07/24 11:09:03;;;;;;;5.47;3.28;;;;;;;31.07;25.74;100072.03;10330164;28;20101;-81
2022/07/24 11:14:06;;;;;;;7.15;3.38;;;;;;;31.10;25.60;100063.47;10349270;28;20049;-81
2022/07/24 11:19:11;;;;;;;4.65;3.42;;;;;;;30.91;25.35;100061.72;10334236;28;20416;-81
2022/07/24 11:24:16;;;;;;;5.18;3.20;;;;;;;30.53;25.91;100049.13;10344853;28;20427;-81
2022/07/24 11:29:27;;;;;;;5.07;3.53;;;;;;;30.44;26.14;100050.38;10347546;28;20061;-80
2022/07/24 11:34:31;;;;;;;5.78;3.25;;;;;;;31.03;25.28;100049.16;10334547;28;20053;-81
2022/07/24 11:39:37;;;;;;;5.85;3.55;;;;;;;30.79;25.10;100039.16;10330081;28;20463;-81
2022/07/24 11:51:04;;;;;;;4.80;3.55;;;;;;;30.79;25.43;100017.56;10329146;28;20050;-81
2022/07/24 11:56:30;;;;;;;6.93;3.70;;;;;;;30.45;25.54;100010.72;10344234;28;20046;-81
2022/07/24 12:01:31;;;;;;;6.43;3.65;;;;;;;30.64;25.61;100007.09;10334751;28;20120;-82
2022/07/24 12:06:33;;;;;;;7.00;3.65;;;;;;;30.83;25.41;99997.16;10336869;28;20997;-81
2022/07/24 12:11:36;;;;;;;4.70;3.42;;;;;;;31.35;25.03;99994.00;10339479;28;20053;-81
2022/07/24 12:16:38;;;;;;;6.63;3.50;;;;;;;31.29;25.07;100001.09;10352055;28;20057;-81
2022/07/24 12:21:46;;;;;;;7.57;3.38;;;;;;;31.25;25.02;99988.28;10334963;28;20221;-81
2022/07/24 12:26:52;;;;;;;;;;;;;;;30.90;25.64;99979.03;10333352;28;20047;-81
2022/07/24 12:32:17;;;;;;;5.65;3.70;;;;;;;31.00;24.40;99982.09;10340349;28;19925;-81
2022/07/24 12:37:21;;;;;;;5.25;3.30;;;;;;;31.40;24.50;99965.25;10332231;28;20542;-80
2022/07/24 12:42:31;;;;;;;6.50;3.70;;;;;;;31.65;24.51;99943.56;10335251;28;20058;-81
2022/07/24 12:47:33;;;;;;;5.65;3.38;;;;;;;31.47;24.39;99944.34;10336997;28;20062;-81
2022/07/24 12:52:38;;;;;;;4.88;3.30;;;;;;;31.39;24.39;99941.94;10350762;28;20298;-80
2022/07/24 12:57:39;;;;;;;5.82;3.50;;;;;;;31.62;23.79;99941.28;10336796;28;20054;-81
2022/07/24 13:02:41;;;;;;;4.22;3.20;;;;;;;31.46;24.28;99931.91;10338193;28;20054;-81
2022/07/24 13:07:51;;;;;;;7.22;3.60;;;;;;;31.44;24.04;99925.88;10352410;28;20046;-81
2022/07/24 13:12:55;;;;;;;4.80;3.75;;;;;;;31.52;23.59;99908.56;10340354;28;20065;-81
2022/07/24 13:17:56;;;;;;;6.40;3.42;;;;;;;31.55;24.02;99918.09;10336895;28;21126;-81
2022/07/24 13:22:58;;;;;;;4.57;3.30;;;;;;;31.57;24.00;99906.00;10335630;28;20096;-81
2022/07/24 13:28:01;;;;;;;5.00;3.25;;;;;;;31.97;23.76;99898.97;10335297;28;20062;-81
2022/07/24 13:33:14;;;;;;;5.72;3.33;;;;;;;31.93;23.58;99886.97;10350003;28;20507;-81
2022/07/24 13:38:16;;;;;;;5.55;3.60;;;;;;;31.92;23.56;99898.88;10352960;28;20108;-81
2022/07/24 13:43:18;;;;;;;7.95;3.40;;;;;;;31.76;23.95;99883.25;10337693;28;20054;-81
2022/07/24 13:48:19;;;;;;;5.95;3.20;;;;;;;31.70;23.53;99875.25;10336917;28;20054;-81
2022/07/24 13:53:22;;;;;;;5.80;3.50;;;;;;;31.69;23.71;99860.09;10335556;28;20940;-81
2022/07/24 13:58:24;;;;;;;8.90;3.70;;;;;;;32.00;23.45;99863.41;10333494;28;20046;-82
2022/07/24 14:03:26;;;;;;;7.95;3.53;;;;;;;32.37;23.05;99855.91;10333606;28;20061;-81
2022/07/24 14:08:42;;;;;;;6.13;3.67;;;;;;;32.43;22.60;99846.84;10338584;28;20566;-81
2022/07/24 14:13:44;;;;;;;4.20;3.20;;;;;;;32.46;23.09;99827.41;10351561;28;20046;-81
2022/07/24 14:18:46;;;;;;;9.32;3.80;;;;;;;32.72;22.51;99835.06;10344261;28;20060;-81
2022/07/24 14:23:47;;;;;;;4.05;3.30;;;;;;;32.44;22.86;99817.88;10335846;28;20050;-81
2022/07/24 14:28:49;;;;;;;4.57;3.55;;;;;;;32.40;22.61;99819.41;10349519;28;20143;-81
2022/07/24 14:33:51;;;;;;;5.15;3.60;;;;;;;32.44;23.01;99812.47;10331334;28;20507;-81
2022/07/24 14:38:53;;;;;;;5.65;3.55;;;;;;;32.41;22.80;99812.94;10328592;28;20117;-81
2022/07/24 14:43:54;;;;;;;6.07;3.28;;;;;;;32.53;23.05;99798.38;10322665;28;20062;-81
2022/07/24 14:48:56;;;;;;;7.55;3.58;;;;;;;32.45;23.04;99787.88;10338158;28;20112;-81
2022/07/24 14:53:58;;;;;;;7.20;3.92;;;;;;;32.45;22.48;99785.19;10321904;28;20129;-81
2022/07/24 14:59:00;;;;;;;5.05;3.70;;;;;;;32.13;22.34;99781.16;10334645;28;20877;-81
2022/07/24 15:04:02;;;;;;;5.45;3.63;;;;;;;32.35;22.50;99771.41;10325308;28;20460;-81
2022/07/24 15:09:05;;;;;;;10.57;4.10;;;;;;;32.48;22.88;99762.19;10331981;28;20064;-81
2022/07/24 15:14:06;;;;;;;9.07;3.75;;;;;;;32.61;22.48;99764.69;10330659;28;20133;-81
2022/07/24 15:19:09;;;;;;;6.88;3.83;;;;;;;32.85;22.29;99760.84;10334021;28;20060;-81
2022/07/24 15:24:11;;;;;;;4.88;3.80;;;;;;;32.94;22.71;99746.69;10330442;28;20085;-81
2022/07/24 15:29:12;;;;;;;8.25;3.50;;;;;;;33.13;21.93;99743.81;10346897;28;20058;-81
2022/07/24 15:34:14;;;;;;;5.90;3.80;;;;;;;32.80;21.70;99747.22;10330261;28;20061;-81
2022/07/24 15:39:16;;;;;;;6.60;3.60;;;;;;;32.52;21.83;99736.31;10330340;28;20066;-81
2022/07/24 15:44:19;;;;;;;5.78;3.47;;;;;;;32.51;22.39;99740.09;10321021;28;20054;-81
2022/07/24 15:49:22;;;;;;;8.52;3.72;;;;;;;32.45;22.53;99727.50;10324039;28;20054;-81
2022/07/24 15:54:25;;;;;;;4.82;3.70;;;;;;;32.48;22.23;99722.44;10331140;28;20047;-81
2022/07/24 15:59:28;;;;;;;8.60;3.53;;;;;;;32.48;22.52;99716.16;10324995;28;20784;-81
2022/07/24 16:04:30;;;;;;;6.15;3.53;;;;;;;32.64;21.92;99712.75;10342987;28;20492;-81
2022/07/24 16:09:32;;;;;;;5.45;3.60;;;;;;;32.67;21.69;99714.97;10327939;28;20053;-81
2022/07/24 16:14:34;;;;;;;5.05;3.25;;;;;;;32.62;20.85;99714.88;10325466;28;20054;-81
2022/07/24 16:19:36;;;;;;;5.25;3.78;;;;;;;32.37;21.37;99700.78;10346427;28;20088;-81
2022/07/24 16:24:38;;;;;;;6.07;3.70;;;;;;;32.56;21.30;99695.00;10330503;28;21356;-81
2022/07/24 16:29:40;;;;;;;6.05;3.72;;;;;;;32.62;20.93;99694.03;10325199;28;20504;-81
2022/07/24 16:34:41;;;;;;;6.13;3.67;;;;;;;32.57;21.30;99685.81;10333911;28;20046;-81
2022/07/24 16:39:43;;;;;;;5.05;3.42;;;;;;;32.46;21.06;99683.09;10330547;28;20578;-81
2022/07/24 16:44:45;;;;;;;6.78;3.65;;;;;;;32.35;21.03;99673.97;10335171;28;20053;-80
2022/07/24 16:49:48;;;;;;;4.55;3.33;;;;;;;32.38;21.48;99664.53;10336970;28;20065;-81
2022/07/24 16:54:50;;;;;;;6.88;3.42;;;;;;;32.24;21.18;99669.38;10352912;28;20050;-81
2022/07/24 16:59:52;;;;;;;7.75;3.60;;;;;;;32.13;21.89;99660.22;10335347;28;20058;-81
2022/07/24 17:04:53;;;;;;;8.10;3.53;;;;;;;32.04;21.35;99653.53;10341729;28;20464;-80
2022/07/24 17:09:55;;;;;;;7.32;3.53;;;;;;;31.93;21.66;99656.22;10351800;28;20577;-81
2022/07/24 17:14:57;;;;;;;11.63;3.90;;;;;;;31.88;21.86;99648.78;10354481;28;20077;-81
2022/07/24 17:19:59;;;;;;;4.68;3.40;;;;;;;31.74;21.76;99655.50;10338714;28;20058;-81
2022/07/24 17:25:00;;;;;;;9.52;3.60;;;;;;;31.67;21.98;99659.41;10338396;28;20050;-81
2022/07/24 17:30:23;;;;;;;6.65;3.70;;;;;;;31.67;21.86;99656.69;10351225;28;20137;-80
2022/07/24 17:35:26;;;;;;;6.82;3.60;;;;;;;31.64;22.18;99660.69;10332138;28;20061;-81
2022/07/24 17:40:28;;;;;;;5.38;3.28;;;;;;;31.44;22.41;99652.06;10352177;28;20054;-81
2022/07/24 17:45:30;;;;;;;8.85;3.83;;;;;;;31.24;22.62;99657.78;10336489;28;20409;-80
2022/07/24 17:50:31;;;;;;;6.32;3.45;;;;;;;31.03;22.72;99654.78;10334918;28;20046;-80
2022/07/24 17:55:34;;;;;;;7.72;3.60;;;;;;;30.99;23.12;99653.59;10328524;28;20762;-80
2022/07/24 18:00:36;;;;;;;6.28;3.75;;;;;;;30.85;23.22;99652.09;10333526;28;20451;-80
2022/07/24 18:05:38;;;;;;;6.95;3.80;;;;;;;30.76;23.45;99657.03;10348673;28;20123;-80
2022/07/24 18:10:39;;;;;;;5.43;3.75;;;;;;;30.61;23.65;99660.13;10331899;28;20054;-80
2022/07/24 18:15:41;;;;;;;9.77;3.80;;;;;;;30.33;24.24;99653.59;10332659;28;20054;-80
2022/07/24 18:20:43;;;;;;;8.68;3.90;;;;;;;30.11;24.34;99657.81;10335288;28;20210;-80
2022/07/24 18:25:45;;;;;;;5.43;3.92;;;;;;;29.96;24.82;99665.41;10348650;28;20046;-80
2022/07/24 18:30:47;;;;;;;8.27;3.85;;;;;;;29.78;25.18;99655.41;10332407;28;20050;-80
2022/07/24 18:35:49;;;;;;;9.30;4.35;;;;;;;29.50;25.38;99657.75;10346238;28;20047;-80
2022/07/24 18:40:50;;;;;;;12.82;4.25;;;;;;;29.25;25.70;99659.56;10333140;28;20093;-80
2022/07/24 18:45:52;;;;;;;11.73;5.35;;;;;;;28.99;26.20;99658.69;10352747;28;20053;-80
2022/07/24 18:50:54;;;;;;;9.48;3.92;;;;;;;28.79;26.36;99657.94;10331012;28;20061;-80
2022/07/24 18:55:58;;;;;;;10.15;4.00;;;;;;;28.57;26.74;99658.47;10333596;28;20050;-80
2022/07/24 19:01:00;;;;;;;11.75;4.30;;;;;;;28.35;27.26;99651.75;10329909;28;20511;-80
2022/07/24 19:06:02;;;;;;;7.82;4.13;;;;;;;28.01;27.56;99652.88;10333747;28;20051;-80
2022/07/24 19:11:04;;;;;;;5.90;4.38;;;;;;;27.68;27.85;99654.75;10349694;28;20123;-80
2022/07/24 19:16:06;;;;;;;9.38;4.53;;;;;;;27.41;28.81;99660.13;10328409;28;20104;-80
2022/07/24 19:21:08;;;;;;;9.32;4.45;;;;;;;27.15;29.05;99662.78;10330874;28;20058;-80
2022/07/24 19:26:10;;;;;;;6.72;4.10;;;;;;;26.79;29.37;99658.75;10352089;28;20045;-80
2022/07/24 19:31:12;;;;;;;5.10;4.10;;;;;;;26.55;30.01;99670.81;10330863;28;20058;-80
2022/07/24 19:36:14;;;;;;;6.22;4.43;;;;;;;26.40;30.10;99665.63;10344713;28;20171;-80
2022/07/24 19:41:16;;;;;;;6.90;4.22;;;;;;;26.19;30.60;99672.91;10332711;28;20061;-81
2022/07/24 19:46:18;;;;;;;6.30;4.85;;;;;;;25.97;31.05;99674.84;10331263;28;20049;-81
2022/07/24 19:51:20;;;;;;;8.32;4.93;;;;;;;25.75;31.63;99682.06;10344175;28;20074;-81
2022/07/24 19:56:42;;;;;;;11.18;5.45;;;;;;;25.53;32.21;99685.81;10331970;28;20129;-80
2022/07/24 20:01:43;;;;;;;7.55;5.13;;;;;;;25.49;33.00;99683.75;10332444;28;20062;-85
2022/07/24 20:06:45;;;;;;;9.63;4.88;;;;;;;25.42;33.06;99685.53;10347547;28;20058;-86
2022/07/24 20:11:47;;;;;;;10.38;5.03;;;;;;;25.37;33.05;99685.25;10332375;28;20050;-85
2022/07/24 20:16:49;;;;;;;6.38;4.43;;;;;;;25.31;33.21;99683.31;10332590;28;20432;-85
2022/07/24 20:21:51;;;;;;;12.77;4.70;;;;;;;25.34;33.89;99689.16;10334603;28;20133;-85
2022/07/24 20:26:53;;;;;;;8.55;4.90;;;;;;;25.35;34.14;99690.81;10338654;28;20479;-86
2022/07/24 20:31:55;;;;;;;7.63;4.55;;;;;;;25.21;34.54;99694.34;10337990;28;20442;-87
2022/07/24 20:36:57;;;;;;;10.13;5.03;;;;;;;25.14;34.59;99690.78;10341144;28;20057;-87
2022/07/24 20:42:02;;;;;;;7.63;4.40;;;;;;;25.12;34.93;99689.31;10343512;28;20046;-86
2022/07/24 20:47:04;;;;;;;6.20;4.40;;;;;;;25.06;35.09;99685.56;10340428;28;20542;-86
2022/07/24 20:52:05;;;;;;;9.75;4.70;;;;;;;24.93;35.51;99686.25;10338094;28;20061;-86
2022/07/24 20:57:08;;;;;;;9.48;4.85;;;;;;;24.60;36.09;99684.16;10342684;28;20100;-86
2022/07/24 21:02:10;;;;;;;6.28;4.88;;;;;;;24.50;36.77;99684.47;10357744;28;20065;-83
2022/07/24 21:07:12;;;;;;;6.40;4.65;;;;;;;24.22;36.82;99683.47;10357009;28;20096;-85
2022/07/24 21:12:13;;;;;;;6.88;4.63;;;;;;;23.91;37.47;99688.13;10348788;28;20054;-85
2022/07/24 21:17:15;;;;;;;6.55;4.70;;;;;;;23.80;37.43;99689.41;10336707;28;20088;-85
2022/07/24 21:22:17;;;;;;;10.30;4.88;;;;;;;23.77;37.70;99681.75;10336944;28;20054;-85
2022/07/24 21:27:20;;;;;;;6.57;4.60;;;;;;;23.56;38.08;99681.63;10333775;28;20050;-84
2022/07/24 21:32:21;;;;;;;7.03;4.32;;;;;;;23.41;38.38;99686.09;10333885;28;20054;-84
2022/07/24 21:37:24;;;;;;;5.82;4.50;;;;;;;23.35;38.62;99690.25;10334174;28;20064;-84
2022/07/24 21:42:25;;;;;;;6.20;4.50;;;;;;;23.36;38.87;99693.78;10334169;28;20050;-83
2022/07/24 21:47:27;;;;;;;10.57;5.20;;;;;;;23.23;39.11;99693.53;10338342;28;20068;-84
2022/07/24 21:52:29;;;;;;;5.68;4.63;;;;;;;22.88;39.75;99692.25;10349625;28;20899;-84
2022/07/24 21:57:31;;;;;;;9.27;4.90;;;;;;;22.73;40.13;99687.84;10336238;28;20061;-84
2022/07/24 22:02:33;;;;;;;10.80;4.80;;;;;;;22.46;40.35;99689.97;10335876;28;20062;-84
2022/07/24 22:07:35;;;;;;;8.45;4.93;;;;;;;22.29;40.78;99683.03;10337529;28;20077;-84
2022/07/24 22:12:37;;;;;;;5.80;4.60;;;;;;;22.26;41.09;99691.38;10334150;28;20061;-83
2022/07/24 22:17:39;;;;;;;6.75;5.00;;;;;;;22.15;41.17;99675.75;10332848;28;20061;-84
2022/07/24 22:22:41;;;;;;;8.32;5.30;;;;;;;21.84;41.84;99669.50;10335456;28;20058;-84
2022/07/24 22:27:42;;;;;;;6.03;4.72;;;;;;;21.72;42.38;99669.00;10330003;28;20049;-84
2022/07/24 22:32:44;;;;;;;7.00;4.68;;;;;;;21.95;41.96;99663.81;10349568;28;20085;-84
2022/07/24 22:37:47;;;;;;;7.35;4.93;;;;;;;22.01;41.90;99664.94;10331546;28;20046;-84
2022/07/24 22:42:49;;;;;;;7.78;4.60;;;;;;;21.80;42.43;99661.00;10334027;28;20073;-84
2022/07/24 22:47:55;;;;;;;6.63;4.93;;;;;;;21.58;43.05;99660.88;10332733;28;20142;-83
2022/07/24 22:52:57;;;;;;;7.13;5.20;;;;;;;21.63;43.12;99658.53;10334663;28;20060;-84
2022/07/24 22:58:00;;;;;;;7.30;4.85;;;;;;;21.74;43.09;99661.69;10351255;28;20058;-84
2022/07/24 23:03:02;;;;;;;6.22;5.05;;;;;;;21.71;43.54;99661.19;10350827;28;20979;-84
2022/07/24 23:08:05;;;;;;;6.97;5.03;;;;;;;21.61;43.52;99665.88;10333002;28;20050;-84
2022/07/24 23:13:06;;;;;;;5.53;4.75;;;;;;;21.53;43.44;99658.72;10349165;28;20100;-84
2022/07/24 23:18:08;;;;;;;7.80;4.95;;;;;;;21.48;43.30;99661.06;10333817;28;20057;-83
2022/07/24 23:23:10;;;;;;;11.48;5.05;;;;;;;21.32;43.92;99668.19;10333511;28;20523;-84
2022/07/24 23:28:12;;;;;;;9.85;5.10;;;;;;;21.31;43.76;99653.22;10333066;28;20050;-84
2022/07/24 23:33:14;;;;;;;9.00;5.20;;;;;;;21.03;44.01;99647.38;10332691;28;20057;-83